Time;durP1;ratioP1;P1;durP2;ratioP2;P2;SDS_P1;SDS_P2;PMS_P1;PMS_P2;Temp;Humidity;BMP_temperature;BMP_pressure;BME280_temperature;BME280_humidity;BME280_pressure;Samples;Min_cycle;Max_cycle;Signal;HPM_P1;HPM_P2
2021/05/06 00:02:15;;;;;;;11.28;1.55;;;;;;;10.81;53.56;100389.59;1782344;80;21491;-41
2021/05/06 00:32:00;;;;;;;4.65;1.75;;;;;;;10.57;53.05;100382.72;1785008;80;20915;-41
2021/05/06 00:34:15;;;;;;;5.15;1.72;;;;;;;10.54;53.13;100382.36;1782056;80;20994;-41
2021/05/06 00:36:44;;;;;;;10.93;1.85;;;;;;;10.54;53.25;100382.36;1784942;79;21186;-41
2021/05/06 00:39:16;;;;;;;3.00;1.32;;;;;;;10.53;53.18;100388.42;1784911;80;20950;-41
2021/05/06 00:41:51;;;;;;;6.30;1.65;;;;;;;10.51;53.26;100382.42;1784811;80;21614;-41
2021/05/06 00:57:49;;;;;;;9.53;2.00;;;;;;;10.38;53.41;100365.38;1785001;79;20931;-41
2021/05/06 01:08:00;;;;;;;7.50;1.67;;;;;;;10.27;54.46;100363.86;1784909;80;21006;-41
2021/05/06 01:12:52;;;;;;;4.08;1.50;;;;;;;10.22;55.01;100352.72;1784921;80;21042;-41
2021/05/06 01:15:21;;;;;;;5.83;1.60;;;;;;;10.21;55.26;100351.88;1784989;80;21182;-41
2021/05/06 01:18:45;;;;;;;7.97;1.65;;;;;;;10.26;55.45;100349.22;1777048;79;22636;-41
2021/05/06 01:21:13;;;;;;;16.50;2.35;;;;;;;10.20;55.77;100351.89;1749646;82;20932;-41
2021/05/06 01:23:44;;;;;;;8.28;1.90;;;;;;;10.19;56.12;100345.89;1749442;81;21010;-41
2021/05/06 01:26:18;;;;;;;6.65;1.60;;;;;;;10.19;56.33;100345.02;1749413;82;20943;-41
2021/05/06 01:28:47;;;;;;;10.13;2.20;;;;;;;10.18;56.23;100337.72;1749513;82;21043;-40
2021/05/06 01:31:21;;;;;;;6.78;1.50;;;;;;;10.19;56.42;100343.72;1735928;82;21002;-41
2021/05/06 01:33:53;;;;;;;9.85;2.25;;;;;;;10.17;56.59;100331.27;1719662;83;20975;-41
2021/05/06 01:36:23;;;;;;;11.53;2.10;;;;;;;10.17;56.58;100335.14;1719201;83;21371;-41
2021/05/06 01:39:02;;;;;;;9.73;2.87;;;;;;;10.14;56.92;100336.50;1719467;83;21054;-41
2021/05/06 01:44:12;;;;;;;28.50;3.40;;;;;;;10.11;57.35;100324.92;1689978;83;21058;-41
2021/05/06 01:47:08;;;;;;;;;;;;;;;10.08;57.55;100323.69;1721874;83;21085;-41
2021/05/06 02:00:34;;;;;;;5.90;2.40;;;;;;;9.87;58.91;100321.89;1719382;82;21014;-42
2021/05/06 02:02:59;;;;;;;5.20;1.98;;;;;;;9.84;59.17;100324.53;1718503;83;21290;-42
2021/05/06 02:05:29;;;;;;;2.08;1.72;;;;;;;9.82;59.36;100318.54;1719331;83;21026;-42
2021/05/06 02:07:56;;;;;;;6.40;2.00;;;;;;;9.76;59.33;100318.20;1719551;82;20963;-42
2021/05/06 02:10:27;;;;;;;3.60;2.02;;;;;;;9.70;59.44;100319.15;1718976;83;20950;-42
2021/05/06 02:12:57;;;;;;;1.82;1.70;;;;;;;9.63;59.50;100324.02;1719426;82;21089;-42
2021/05/06 02:15:32;;;;;;;7.15;1.72;;;;;;;9.56;59.61;100321.96;1719518;83;21192;-41
2021/05/06 02:17:59;;;;;;;7.62;2.08;;;;;;;9.49;59.88;100325.11;1712310;83;21050;-42
2021/05/06 02:20:27;;;;;;;4.25;1.75;;;;;;;9.44;60.16;100321.72;1706698;84;21038;-42
2021/05/06 02:22:57;;;;;;;6.03;2.02;;;;;;;9.39;60.36;100322.23;1706706;84;21067;-42
2021/05/06 02:25:25;;;;;;;4.80;2.58;;;;;;;9.34;60.52;100320.17;1706791;84;21011;-41
2021/05/06 02:27:53;;;;;;;3.95;2.30;;;;;;;9.31;60.55;100322.80;1706773;84;21407;-41
2021/05/06 02:30:22;;;;;;;5.50;2.25;;;;;;;9.28;60.78;100318.98;1706216;82;21026;-41
2021/05/06 02:32:49;;;;;;;5.80;2.35;;;;;;;9.24;60.91;100317.33;1706206;84;20980;-42
2021/05/06 02:35:17;;;;;;;5.25;2.58;;;;;;;9.20;61.10;100314.77;1706299;84;21023;-41
2021/05/06 02:37:46;;;;;;;6.35;2.62;;;;;;;9.18;61.04;100319.55;1706207;84;21015;-41
2021/05/06 02:40:14;;;;;;;4.58;3.10;;;;;;;9.12;61.16;100314.03;1706251;84;21484;-41
2021/05/06 02:42:41;;;;;;;14.73;4.40;;;;;;;9.09;61.48;100316.66;1706197;84;21074;-41
2021/05/06 02:45:10;;;;;;;14.18;4.33;;;;;;;9.05;61.47;100317.13;1706223;84;21536;-41
2021/05/06 02:47:38;;;;;;;13.93;6.80;;;;;;;9.03;61.61;100320.63;1706166;84;20952;-41
2021/05/06 02:50:13;;;;;;;12.40;5.60;;;;;;;9.00;62.00;100316.36;1706234;84;21110;-41
2021/05/06 02:52:43;;;;;;;9.75;4.10;;;;;;;8.97;62.09;100314.24;1706059;84;21587;-41
2021/05/06 02:57:52;;;;;;;16.30;4.80;;;;;;;8.95;61.98;100311.70;1706180;84;21020;-42
2021/05/06 03:03:03;;;;;;;13.15;4.40;;;;;;;8.99;61.81;100313.81;1706213;84;21051;-41
2021/05/06 03:05:33;;;;;;;7.92;4.22;;;;;;;9.02;61.88;100311.19;1706199;84;21142;-42
2021/05/06 03:08:14;;;;;;;12.43;4.53;;;;;;;9.05;61.62;100307.26;1706146;84;21035;-40
2021/05/06 03:13:52;;;;;;;15.30;4.85;;;;;;;9.13;61.16;100304.12;1706263;84;21070;-41
2021/05/06 03:24:11;;;;;;;25.88;5.35;;;;;;;9.42;60.74;100313.14;1714132;83;21023;-41
2021/05/06 03:26:39;;;;;;;20.48;5.50;;;;;;;9.51;60.41;100316.48;1714082;82;21038;-40
2021/05/06 03:29:12;;;;;;;18.00;4.67;;;;;;;9.56;59.75;100304.33;1714111;83;21035;-41
2021/05/06 03:42:41;;;;;;;17.07;5.72;;;;;;;9.96;59.57;100316.55;1710384;83;20928;-41
2021/05/06 04:25:46;;;;;;;22.10;8.90;;;;;;;10.59;58.92;100323.58;1714010;83;21107;-41
2021/05/06 04:38:42;;;;;;;59.75;11.97;;;;;;;10.68;59.14;100322.97;1713961;83;21145;-41
2021/05/06 04:55:24;;;;;;;26.10;7.72;;;;;;;10.84;59.43;100310.55;1714006;83;20137;-42
2021/05/06 04:58:01;;;;;;;23.45;6.80;;;;;;;10.98;59.42;100314.98;1712211;83;20995;-40
2021/05/06 05:05:45;;;;;;;17.20;5.67;;;;;;;11.55;58.06;100319.73;1714039;82;21215;-41
2021/05/06 05:08:15;;;;;;;15.95;4.78;;;;;;;11.70;57.57;100312.02;1713977;83;21011;-41
2021/05/06 05:11:00;;;;;;;9.20;4.10;;;;;;;11.83;57.00;100316.45;1713961;83;21058;-41
2021/05/06 05:13:31;;;;;;;8.10;3.90;;;;;;;11.86;56.60;100308.58;1710128;82;21038;-41
2021/05/06 05:21:24;;;;;;;12.95;3.17;;;;;;;11.99;56.08;100316.42;1706053;84;21027;-41
2021/05/06 05:23:56;;;;;;;8.33;3.00;;;;;;;12.03;55.65;100320.70;1705965;84;21079;-41
2021/05/06 05:26:18;;;;;;;8.63;2.75;;;;;;;12.07;55.19;100316.27;1705260;83;21070;-41
2021/05/06 05:28:45;;;;;;;14.58;2.75;;;;;;;12.07;55.24;100311.94;1706181;84;21159;-41
2021/05/06 05:31:13;;;;;;;15.88;2.77;;;;;;;12.10;54.11;100321.36;1706046;82;21894;-41
2021/05/06 05:33:51;;;;;;;9.45;2.40;;;;;;;12.17;54.60;100321.63;1706065;84;20972;-41
2021/05/06 05:36:19;;;;;;;12.13;2.33;;;;;;;12.27;54.12;100315.73;1706165;84;21003;-41
2021/05/06 05:38:57;;;;;;;13.53;3.08;;;;;;;12.42;53.59;100311.86;1706045;84;20951;-41
2021/05/06 05:54:54;;;;;;;;;;;;;;;13.89;49.01;100301.69;1708647;83;20165;-40
2021/05/06 05:57:21;;;;;;;8.45;2.55;;;;;;;13.99;48.60;100299.62;1706121;84;21204;-40
2021/05/06 05:59:50;;;;;;;10.25;2.50;;;;;;;13.96;47.62;100298.43;1706072;83;20988;-41
2021/05/06 06:02:18;;;;;;;6.75;2.55;;;;;;;13.91;47.54;100296.84;1706163;84;21126;-41
2021/05/06 06:04:46;;;;;;;13.83;3.10;;;;;;;13.90;47.69;100293.84;1706167;82;21043;-41
2021/05/06 06:07:13;;;;;;;11.45;3.33;;;;;;;13.98;48.19;100293.55;1706254;84;21074;-41
2021/05/06 06:09:42;;;;;;;20.15;3.80;;;;;;;14.04;46.70;100290.75;1706214;84;21371;-41
2021/05/06 06:12:10;;;;;;;22.75;2.98;;;;;;;14.15;47.17;100293.41;1706219;83;21010;-41
2021/05/06 06:17:12;;;;;;;9.78;2.90;;;;;;;14.31;46.21;100290.66;1706198;84;21046;-41
2021/05/06 06:19:47;;;;;;;12.63;3.20;;;;;;;14.36;44.94;100285.27;1711541;83;21165;-41
2021/05/06 06:22:11;;;;;;;10.43;2.83;;;;;;;14.35;45.22;100277.92;1713612;82;21389;-41
2021/05/06 06:24:39;;;;;;;9.60;2.60;;;;;;;14.29;45.13;100289.88;1714059;83;20971;-42
2021/05/06 06:27:08;;;;;;;10.82;2.87;;;;;;;14.26;45.25;100296.94;1714083;83;21026;-41
2021/05/06 06:29:35;;;;;;;15.72;2.87;;;;;;;14.27;45.91;100289.05;1714100;83;20948;-41
2021/05/06 06:32:07;;;;;;;19.12;3.00;;;;;;;14.26;45.69;100291.26;1714099;82;21027;-41
2021/05/06 06:34:34;;;;;;;13.13;2.83;;;;;;;14.28;45.49;100293.82;1714125;83;22188;-41
2021/05/06 06:37:01;;;;;;;4.65;2.58;;;;;;;14.31;44.83;100292.41;1714048;83;21034;-41
2021/05/06 06:39:30;;;;;;;11.12;3.35;;;;;;;14.30;45.00;100288.97;1714046;83;21086;-41
2021/05/06 06:41:57;;;;;;;22.50;3.80;;;;;;;14.33;45.19;100291.45;1685756;83;20896;-41
2021/05/06 06:47:05;;;;;;;10.18;2.35;;;;;;;14.52;44.55;100292.05;1889821;76;22621;-41
2021/05/06 06:49:40;;;;;;;13.70;2.90;;;;;;;14.60;44.23;100293.07;1860718;77;20974;-42
2021/05/06 06:52:10;;;;;;;11.95;2.08;;;;;;;14.72;45.45;100297.00;1860958;77;22094;-42
2021/05/06 06:54:39;;;;;;;10.35;2.58;;;;;;;14.81;44.22;100282.33;1822872;78;20999;-40
2021/05/06 06:57:08;;;;;;;6.30;2.47;;;;;;;14.84;43.89;100284.81;1822958;78;20976;-40
2021/05/06 06:59:36;;;;;;;18.05;3.25;;;;;;;14.94;44.11;100285.30;1822848;78;20950;-40
2021/05/06 07:02:04;;;;;;;11.55;3.15;;;;;;;15.04;44.01;100281.89;1822086;78;20992;-41
2021/05/06 07:04:32;;;;;;;5.78;3.08;;;;;;;15.12;43.02;100278.95;1781910;80;21354;-41
2021/05/06 07:07:00;;;;;;;6.30;2.27;;;;;;;15.25;44.22;100275.39;1789540;80;21085;-41
2021/05/06 07:09:28;;;;;;;17.77;2.40;;;;;;;15.50;43.78;100282.59;1785977;80;21051;-41
2021/05/06 07:11:57;;;;;;;10.23;2.27;;;;;;;15.72;43.84;100284.77;1788771;80;20972;-41
2021/05/06 07:14:28;;;;;;;14.13;2.42;;;;;;;15.87;43.61;100281.48;1822889;78;20998;-41
2021/05/06 07:16:56;;;;;;;8.40;1.90;;;;;;;16.02;42.79;100280.47;1812167;78;21382;-41
2021/05/06 07:19:24;;;;;;;9.38;1.98;;;;;;;16.18;42.21;100280.63;1794373;80;21006;-41
2021/05/06 07:21:52;;;;;;;8.40;1.75;;;;;;;16.29;41.91;100272.31;1781924;80;20935;-41
2021/05/06 07:24:21;;;;;;;16.93;2.72;;;;;;;16.41;41.40;100265.21;1815298;78;21039;-41
2021/05/06 07:26:51;;;;;;;21.35;3.22;;;;;;;16.61;40.35;100272.14;1772787;80;20968;-41
2021/05/06 07:29:21;;;;;;;24.27;2.98;;;;;;;16.79;39.74;100269.12;1822237;78;21340;-41
2021/05/06 07:31:51;;;;;;;26.95;2.72;;;;;;;16.98;40.26;100262.16;1806615;78;21014;-41
2021/05/06 07:34:20;;;;;;;34.75;3.42;;;;;;;17.20;39.90;100257.61;1774042;80;21097;-41
2021/05/06 07:36:49;;;;;;;42.70;3.08;;;;;;;17.30;39.37;100267.60;1789531;80;20987;-41
2021/05/06 07:39:19;;;;;;;12.13;2.10;;;;;;;17.44;38.61;100257.78;1758591;81;21500;-41
2021/05/06 07:41:48;;;;;;;11.40;2.40;;;;;;;17.63;37.54;100255.08;1788784;80;21475;-41
2021/05/06 07:44:18;;;;;;;26.65;3.45;;;;;;;17.87;39.13;100263.89;1789139;80;21012;-41
2021/05/06 07:46:47;;;;;;;10.35;2.60;;;;;;;18.12;38.48;100252.16;1732412;82;21357;-41
2021/05/06 07:49:16;;;;;;;26.00;2.42;;;;;;;18.42;38.73;100257.98;1764363;81;21046;-41
2021/05/06 07:51:46;;;;;;;20.77;2.90;;;;;;;18.65;37.82;100265.42;1764980;81;21022;-42
2021/05/06 07:54:15;;;;;;;14.13;2.30;;;;;;;18.70;37.46;100252.52;1765673;79;21533;-42
2021/05/06 07:56:46;;;;;;;11.83;2.08;;;;;;;18.70;37.83;100259.94;1773314;79;21118;-42
2021/05/06 07:59:14;;;;;;;29.92;2.67;;;;;;;18.80;38.13;100255.85;1764673;79;21050;-42
2021/05/06 08:01:43;;;;;;;18.48;1.90;;;;;;;18.91;36.62;100249.14;1769530;79;21655;-42
2021/05/06 08:04:10;;;;;;;22.02;2.00;;;;;;;19.04;35.93;100248.02;1764660;81;20948;-42
2021/05/06 08:06:40;;;;;;;13.50;1.80;;;;;;;19.06;36.73;100253.56;1764531;80;21124;-42
2021/05/06 08:09:08;;;;;;;49.67;2.85;;;;;;;19.13;35.99;100259.30;1764505;80;21004;-41
2021/05/06 08:11:35;;;;;;;14.47;1.57;;;;;;;19.32;35.24;100259.53;1764531;81;21035;-42
2021/05/06 08:14:03;;;;;;;19.27;2.27;;;;;;;19.57;36.32;100251.52;1764504;81;21047;-42
2021/05/06 08:16:33;;;;;;;12.82;1.70;;;;;;;19.86;34.50;100256.34;1764595;81;21071;-41
2021/05/06 08:19:01;;;;;;;9.58;1.90;;;;;;;19.87;33.88;100254.58;1765798;79;21323;-41
2021/05/06 08:21:30;;;;;;;8.93;1.80;;;;;;;19.71;35.68;100248.10;1766553;79;21086;-42
2021/05/06 08:23:57;;;;;;;18.35;2.50;;;;;;;19.68;34.87;100258.30;1764988;79;21184;-42
2021/05/06 08:26:27;;;;;;;14.65;1.92;;;;;;;19.60;36.55;100253.99;1767676;79;20966;-42
2021/05/06 08:28:56;;;;;;;20.65;2.40;;;;;;;19.49;34.98;100252.83;1780467;79;20947;-42
2021/05/06 08:31:25;;;;;;;5.78;2.00;;;;;;;19.22;35.48;100267.12;1796055;79;22282;-43
2021/05/06 08:33:52;;;;;;;10.85;2.50;;;;;;;19.07;36.14;100275.38;1768316;79;21085;-43
2021/05/06 08:36:21;;;;;;;14.83;2.58;;;;;;;18.97;36.41;100271.11;1764567;81;21029;-43
2021/05/06 08:38:50;;;;;;;5.55;2.05;;;;;;;18.78;36.81;100268.66;1770218;79;20996;-42
2021/05/06 08:41:20;;;;;;;5.65;2.40;;;;;;;18.73;36.96;100279.42;1764602;81;21117;-43
2021/05/06 08:43:57;;;;;;;18.95;2.92;;;;;;;18.84;37.96;100277.52;1764642;81;22270;-42
2021/05/06 08:46:34;;;;;;;14.53;3.30;;;;;;;19.03;37.04;100276.48;1792365;79;21003;-41
2021/05/06 08:49:04;;;;;;;20.95;3.67;;;;;;;18.95;36.94;100284.30;1754935;81;21077;-41
2021/05/06 08:51:35;;;;;;;7.00;3.10;;;;;;;18.81;37.63;100277.66;1768078;80;21050;-42
2021/05/06 08:54:04;;;;;;;26.52;3.30;;;;;;;18.85;37.40;100266.09;1757388;81;21163;-41
2021/05/06 08:56:33;;;;;;;10.95;2.12;;;;;;;18.90;37.37;100273.23;1798795;79;21202;-42
2021/05/06 08:59:02;;;;;;;21.07;2.37;;;;;;;18.95;36.17;100258.07;1798638;79;20962;-43
2021/05/06 09:01:31;;;;;;;9.78;1.45;;;;;;;18.82;36.53;100278.06;1798760;79;20978;-43
2021/05/06 09:03:58;;;;;;;16.65;1.65;;;;;;;18.67;36.72;100277.98;1729059;83;20962;-42
2021/05/06 09:06:27;;;;;;;15.28;1.42;;;;;;;18.58;36.14;100275.02;1741885;82;21000;-43
2021/05/06 09:09:00;;;;;;;3.25;1.70;;;;;;;18.49;36.20;100280.29;1741814;82;21392;-43
2021/05/06 09:11:37;;;;;;;6.20;1.60;;;;;;;18.45;37.05;100266.98;1741814;82;21022;-42
2021/05/06 09:14:10;;;;;;;5.90;1.00;;;;;;;18.60;37.22;100270.53;1741941;82;21027;-42
2021/05/06 09:16:43;;;;;;;10.82;1.65;;;;;;;18.61;35.91;100272.22;1741839;82;21051;-42
2021/05/06 09:19:14;;;;;;;8.10;1.10;;;;;;;18.42;36.76;100276.31;1741872;82;21007;-42
2021/05/06 09:21:45;;;;;;;13.18;1.85;;;;;;;18.45;36.77;100273.53;1741825;82;22154;-42
2021/05/06 09:24:24;;;;;;;9.43;1.77;;;;;;;18.55;37.19;100277.80;1741872;82;21074;-42
2021/05/06 09:26:59;;;;;;;10.75;1.85;;;;;;;18.82;36.48;100272.83;1741755;82;21158;-42
2021/05/06 09:32:27;;;;;;;14.15;1.20;;;;;;;19.46;35.70;100261.37;1859806;76;23149;-41
2021/05/06 09:34:54;;;;;;;5.67;1.10;;;;;;;19.66;34.17;100264.12;1827023;78;21021;-42
2021/05/06 09:37:27;;;;;;;9.13;1.12;;;;;;;19.94;35.18;100272.98;1827109;78;21134;-42
2021/05/06 09:40:04;;;;;;;15.45;1.62;;;;;;;20.31;33.62;100272.51;1826956;78;21577;-42
2021/05/06 09:42:44;;;;;;;6.55;1.25;;;;;;;20.54;32.66;100259.22;1826581;78;21049;-43
2021/05/06 09:45:26;;;;;;;17.25;1.15;;;;;;;20.58;32.71;100263.34;1827001;78;21006;-42
2021/05/06 09:48:09;;;;;;;7.60;1.10;;;;;;;20.36;31.68;100260.78;1827002;78;20949;-42
2021/05/06 09:50:38;;;;;;;4.15;1.22;;;;;;;20.20;32.23;100260.86;1822765;78;21366;-42
2021/05/06 09:53:17;;;;;;;10.68;1.50;;;;;;;20.14;32.58;100268.30;1826921;78;21021;-42
2021/05/06 09:55:48;;;;;;;4.67;1.10;;;;;;;19.94;33.26;100275.62;1826962;78;21057;-41
2021/05/06 09:58:22;;;;;;;5.97;1.00;;;;;;;19.65;34.33;100265.06;1826911;78;20942;-43
2021/05/06 10:00:51;;;;;;;9.55;1.10;;;;;;;19.50;34.64;100262.39;1826993;78;21610;-42
2021/05/06 10:03:32;;;;;;;10.03;0.90;;;;;;;19.39;34.14;100263.02;1826994;78;21357;-42
2021/05/06 10:06:19;;;;;;;15.23;1.30;;;;;;;19.43;33.87;100255.83;1827004;78;21483;-42
2021/05/06 10:08:48;;;;;;;5.92;1.10;;;;;;;19.54;34.63;100255.19;1827005;78;20982;-42
2021/05/06 10:11:19;;;;;;;19.12;1.80;;;;;;;19.56;33.81;100255.08;1826901;78;21060;-42
2021/05/06 10:13:49;;;;;;;21.82;2.42;;;;;;;19.56;35.14;100253.31;1826977;78;21061;-42
2021/05/06 10:16:17;;;;;;;53.52;2.20;;;;;;;19.68;34.25;100254.37;1826965;78;21383;-42
2021/05/06 10:18:46;;;;;;;38.25;1.92;;;;;;;19.75;32.19;100252.23;1826902;78;20933;-41
2021/05/06 10:21:17;;;;;;;58.15;3.65;;;;;;;19.50;33.16;100246.64;1827030;78;21547;-42
2021/05/06 10:23:49;;;;;;;63.42;2.85;;;;;;;19.35;33.19;100248.40;1826893;78;21124;-42
2021/05/06 10:26:18;;;;;;;7.12;1.55;;;;;;;19.27;34.06;100252.40;1826949;78;21080;-42
2021/05/06 10:28:46;;;;;;;9.13;1.10;;;;;;;19.19;32.50;100252.39;1827049;78;22268;-42
2021/05/06 10:31:13;;;;;;;22.17;1.75;;;;;;;19.12;32.39;100244.50;1825941;77;21013;-43
2021/05/06 10:33:43;;;;;;;18.90;1.52;;;;;;;19.12;32.71;100254.14;1824960;78;21248;-43
2021/05/06 10:36:12;;;;;;;10.18;1.30;;;;;;;19.05;34.45;100247.94;1824833;78;21009;-43
2021/05/06 10:38:42;;;;;;;7.62;1.40;;;;;;;19.09;33.53;100247.30;1825022;78;21053;-43
2021/05/06 10:41:34;;;;;;;6.65;1.10;;;;;;;19.03;33.22;100242.39;1824980;78;21205;-43
2021/05/06 10:43:59;;;;;;;4.62;1.10;;;;;;;18.99;33.64;100246.12;1823194;78;21515;-43
2021/05/06 10:47:04;;;;;;;17.95;1.30;;;;;;;18.99;34.38;100243.50;1824408;78;21036;-43
2021/05/06 10:49:42;;;;;;;5.00;0.90;;;;;;;19.05;34.06;100234.83;1824053;78;20954;-42
2021/05/06 10:52:10;;;;;;;6.05;0.95;;;;;;;19.05;32.94;100235.27;1816977;78;21134;-42
2021/05/06 10:54:49;;;;;;;2.50;1.05;;;;;;;19.03;34.27;100235.38;1797460;78;21266;-42
2021/05/06 10:57:23;;;;;;;5.75;1.35;;;;;;;19.22;33.90;100239.09;1824232;78;20946;-41
2021/05/06 10:59:52;;;;;;;2.35;0.98;;;;;;;19.53;32.88;100228.57;1824303;78;21049;-41
2021/05/06 11:02:43;;;;;;;12.05;1.30;;;;;;;19.97;32.99;100224.20;1824371;78;20942;-41
2021/05/06 11:05:18;;;;;;;3.72;1.45;;;;;;;20.45;32.54;100229.58;1824436;78;21559;-41
2021/05/06 11:08:09;;;;;;;4.28;1.10;;;;;;;20.76;31.81;100214.45;1824439;78;21250;-41
2021/05/06 11:10:51;;;;;;;9.40;1.00;;;;;;;21.20;30.95;100215.97;1804319;78;21586;-42
2021/05/06 11:13:26;;;;;;;5.72;0.88;;;;;;;21.78;29.86;100218.23;1824278;78;21064;-42
2021/05/06 11:15:50;;;;;;;4.60;0.75;;;;;;;22.30;29.62;100209.39;1823392;78;20938;-42
2021/05/06 11:18:43;;;;;;;2.90;1.02;;;;;;;22.42;29.15;100211.62;1824323;78;20911;-42
2021/05/06 11:21:17;;;;;;;6.75;1.27;;;;;;;22.27;29.47;100213.08;1824317;78;21369;-42
2021/05/06 11:23:45;;;;;;;5.70;0.93;;;;;;;22.09;29.15;100205.52;1813773;78;21147;-42
2021/05/06 11:26:14;;;;;;;18.52;1.90;;;;;;;22.07;29.68;100200.84;1771294;78;21002;-42
2021/05/06 11:28:43;;;;;;;5.62;1.12;;;;;;;21.96;30.20;100211.31;1824235;78;21021;-42
2021/05/06 11:31:10;;;;;;;3.92;1.12;;;;;;;21.68;29.96;100201.39;1824607;77;21014;-42
2021/05/06 11:33:38;;;;;;;3.72;1.00;;;;;;;21.34;29.39;100203.66;1826307;78;21425;-42
2021/05/06 11:36:21;;;;;;;5.33;0.95;;;;;;;21.05;29.02;100203.37;1826179;78;21006;-42
2021/05/06 11:38:54;;;;;;;8.95;1.27;;;;;;;21.02;30.79;100211.93;1825928;78;20931;-42
2021/05/06 11:41:32;;;;;;;9.88;1.75;;;;;;;21.37;30.11;100204.30;1826412;78;20994;-42
2021/05/06 11:44:05;;;;;;;12.85;1.25;;;;;;;21.67;28.46;100210.24;1826330;78;20883;-42
2021/05/06 11:46:37;;;;;;;18.30;1.35;;;;;;;21.63;28.27;100210.89;1826264;78;21401;-42
2021/05/06 11:49:06;;;;;;;6.08;1.40;;;;;;;21.44;29.05;100209.14;1826334;78;20972;-42
2021/05/06 11:51:41;;;;;;;8.40;1.20;;;;;;;21.23;29.94;100206.55;1826268;78;21002;-42
2021/05/06 11:54:15;;;;;;;4.30;1.00;;;;;;;21.18;30.12;100201.22;1826467;78;21531;-42
2021/05/06 11:56:58;;;;;;;2.45;0.93;;;;;;;20.92;29.69;100212.55;1826308;78;21147;-43
2021/05/06 11:59:32;;;;;;;9.10;1.00;;;;;;;20.67;30.79;100207.55;1826301;78;21263;-40
2021/05/06 12:02:06;;;;;;;8.90;1.00;;;;;;;20.48;30.35;100212.30;1826235;78;20938;-42
2021/05/06 12:04:36;;;;;;;4.78;1.12;;;;;;;20.25;30.44;100210.66;1826529;78;21555;-42
2021/05/06 12:07:16;;;;;;;10.58;1.17;;;;;;;20.02;30.73;100214.25;1826279;78;21005;-42
2021/05/06 12:09:43;;;;;;;17.75;1.32;;;;;;;19.82;30.75;100218.91;1826303;78;21014;-42
2021/05/06 12:12:13;;;;;;;20.37;1.25;;;;;;;19.53;33.90;100225.95;1826309;78;21347;-41
2021/05/06 12:14:42;;;;;;;63.38;3.10;;;;;;;18.85;36.73;100221.52;1794249;78;21025;-41
2021/05/06 12:17:10;;;;;;;89.90;3.33;;;;;;;18.04;39.51;100239.47;1826308;78;21010;-42
2021/05/06 12:19:42;;;;;;;10.93;1.80;;;;;;;17.43;41.41;100237.30;1794602;78;21490;-42
2021/05/06 12:22:10;;;;;;;22.50;2.08;;;;;;;17.10;42.90;100245.92;1826286;78;20978;-41
2021/05/06 12:24:41;;;;;;;6.67;1.30;;;;;;;16.80;44.56;100242.54;1826307;78;21194;-42
2021/05/06 12:27:29;;;;;;;11.68;1.62;;;;;;;16.54;44.94;100241.98;1826206;78;21030;-41
2021/05/06 12:30:02;;;;;;;68.95;3.85;;;;;;;16.28;46.12;100251.86;1826253;78;20898;-41
2021/05/06 12:32:35;;;;;;;81.97;5.30;;;;;;;16.21;46.00;100250.02;1824827;77;20997;-42
2021/05/06 12:35:03;;;;;;;43.70;2.83;;;;;;;16.07;46.75;100254.55;1824178;78;21049;-42
2021/05/06 12:37:32;;;;;;;21.12;1.27;;;;;;;15.99;47.22;100256.64;1824297;78;22241;-42
2021/05/06 12:40:00;;;;;;;29.50;2.35;;;;;;;15.83;47.89;100254.30;1824203;78;20946;-42
2021/05/06 12:42:31;;;;;;;34.92;2.75;;;;;;;15.69;48.94;100257.03;1824212;78;20942;-42
2021/05/06 12:44:59;;;;;;;11.08;2.20;;;;;;;15.56;49.84;100255.88;1824278;78;21200;-43
2021/05/06 12:47:33;;;;;;;12.85;1.80;;;;;;;15.43;51.58;100247.25;1824249;78;21037;-42
2021/05/06 12:50:14;;;;;;;4.83;1.50;;;;;;;15.25;52.30;100243.66;1823107;78;21193;-43
2021/05/06 12:52:53;;;;;;;14.28;1.52;;;;;;;15.03;54.22;100241.06;1824099;78;21590;-42
2021/05/06 12:55:27;;;;;;;3.77;1.37;;;;;;;14.73;56.04;100250.50;1824093;78;20962;-41
2021/05/06 12:58:20;;;;;;;3.25;1.62;;;;;;;14.52;56.32;100254.28;1824262;78;21606;-41
2021/05/06 13:01:02;;;;;;;1.60;1.50;;;;;;;14.40;57.44;100246.52;1824200;78;21018;-42
2021/05/06 13:03:44;;;;;;;2.42;1.30;;;;;;;14.41;58.73;100246.05;1824138;78;21014;-42
2021/05/06 13:06:15;;;;;;;5.33;1.90;;;;;;;14.46;57.99;100246.27;1824066;78;21033;-41
2021/05/06 13:08:45;;;;;;;4.80;1.42;;;;;;;14.56;58.42;100248.08;1824241;78;20950;-41
2021/05/06 13:11:15;;;;;;;3.77;1.30;;;;;;;14.61;58.81;100234.42;1824258;78;21547;-41
2021/05/06 13:13:51;;;;;;;1.82;1.45;;;;;;;14.69;60.31;100248.89;1824296;78;21045;-41
2021/05/06 13:16:43;;;;;;;4.22;1.70;;;;;;;14.64;61.48;100252.53;1824145;78;21638;-42
2021/05/06 13:19:16;;;;;;;4.22;1.98;;;;;;;14.51;61.33;100254.76;1824144;78;21240;-42
2021/05/06 13:21:51;;;;;;;9.20;1.67;;;;;;;14.40;62.60;100254.77;1824014;78;21021;-42
2021/05/06 13:24:21;;;;;;;3.80;1.90;;;;;;;14.31;62.51;100252.91;1824190;78;20919;-42
2021/05/06 13:26:49;;;;;;;5.78;1.75;;;;;;;14.28;62.87;100251.73;1824172;78;20922;-42
2021/05/06 13:29:19;;;;;;;78.25;3.67;;;;;;;14.27;62.51;100259.58;1824373;78;22049;-42
2021/05/06 13:31:48;;;;;;;6.97;2.25;;;;;;;14.16;62.67;100266.05;1824032;77;21189;-42
2021/05/06 13:37:05;;;;;;;10.85;2.50;;;;;;;13.86;65.17;100267.98;1776949;79;22631;-42
2021/05/06 13:39:35;;;;;;;9.85;2.70;;;;;;;13.55;67.25;100272.94;1749461;81;21002;-42
2021/05/06 13:42:03;;;;;;;13.88;3.15;;;;;;;13.28;69.68;100280.72;1749437;81;21332;-42
2021/05/06 13:44:31;;;;;;;9.40;2.95;;;;;;;13.03;70.89;100281.51;1749390;82;20943;-41
2021/05/06 13:47:05;;;;;;;7.25;2.10;;;;;;;12.85;71.29;100269.48;1749449;82;20935;-42
2021/05/06 13:49:33;;;;;;;7.92;2.60;;;;;;;12.70;71.51;100260.84;1721558;82;21464;-42
2021/05/06 13:52:04;;;;;;;5.72;3.15;;;;;;;12.57;72.78;100269.02;1749519;82;20940;-42
2021/05/06 13:54:32;;;;;;;5.92;2.27;;;;;;;12.41;73.55;100261.27;1749503;80;21894;-42
2021/05/06 13:57:00;;;;;;;10.80;2.65;;;;;;;12.29;73.70;100263.77;1749396;82;21014;-42
2021/05/06 13:59:28;;;;;;;4.12;2.40;;;;;;;12.23;74.55;100268.69;1749466;82;20951;-42
2021/05/06 14:01:57;;;;;;;3.30;2.30;;;;;;;12.13;75.62;100266.83;1749357;81;21039;-42
2021/05/06 14:04:25;;;;;;;3.30;2.00;;;;;;;12.06;76.20;100275.64;1749545;82;21531;-41
2021/05/06 14:06:53;;;;;;;6.62;2.30;;;;;;;12.00;76.45;100267.58;1749455;81;21192;-41
2021/05/06 14:09:21;;;;;;;4.45;2.33;;;;;;;11.99;76.89;100268.44;1749447;82;21110;-42
2021/05/06 14:11:51;;;;;;;4.03;2.20;;;;;;;12.00;77.34;100271.90;1749460;82;20959;-41
2021/05/06 14:14:20;;;;;;;4.55;2.37;;;;;;;12.01;77.61;100269.73;1720857;82;20896;-41
2021/05/06 14:16:48;;;;;;;3.15;2.20;;;;;;;12.02;78.01;100268.41;1749392;81;20927;-41
2021/05/06 14:19:15;;;;;;;5.42;2.72;;;;;;;12.05;77.85;100272.65;1720334;82;21441;-41
2021/05/06 14:21:47;;;;;;;4.75;2.17;;;;;;;12.08;77.76;100280.34;1749260;82;21065;-41
2021/05/06 14:24:14;;;;;;;9.65;2.67;;;;;;;12.15;77.37;100282.33;1749357;82;21039;-41
2021/05/06 14:26:47;;;;;;;4.70;2.45;;;;;;;12.18;77.10;100282.23;1749447;82;21078;-42
2021/05/06 14:29:16;;;;;;;7.60;2.05;;;;;;;12.20;76.79;100288.23;1749446;82;21034;-41
2021/05/06 14:31:43;;;;;;;6.67;2.30;;;;;;;12.24;76.61;100285.12;1732650;82;21500;-41
2021/05/06 14:34:12;;;;;;;3.60;2.10;;;;;;;12.25;75.75;100286.39;1719509;83;21078;-42
2021/05/06 14:36:39;;;;;;;3.90;1.87;;;;;;;12.28;75.99;100288.02;1709162;83;20999;-42
2021/05/06 14:39:08;;;;;;;4.95;1.95;;;;;;;12.29;75.73;100285.83;1706837;83;21015;-42
2021/05/06 14:41:40;;;;;;;2.12;1.80;;;;;;;12.31;75.60;100286.64;1706831;84;21051;-42
2021/05/06 14:44:08;;;;;;;3.92;2.05;;;;;;;12.34;75.79;100283.95;1706812;84;21386;-42
2021/05/06 14:46:36;;;;;;;5.83;2.08;;;;;;;12.35;75.67;100277.44;1706547;84;20963;-42
2021/05/06 14:49:05;;;;;;;4.05;2.30;;;;;;;12.38;75.50;100284.73;1706167;84;21027;-42
2021/05/06 14:51:32;;;;;;;7.15;2.67;;;;;;;12.36;75.44;100283.03;1706223;84;21002;-42
2021/05/06 14:54:00;;;;;;;8.30;2.52;;;;;;;12.38;75.67;100283.43;1706228;84;21094;-42